sensor_id;sensor_type;location;lat;lon;timestamp;pressure;altitude;pressure_sealevel;temperature;humidity
30110;BME280;14965;50.660;13.226;2022-07-23T00:00:42;95065.22;;;16.44;78.36
30110;BME280;14965;50.660;13.226;2022-07-23T00:03:07;95077.78;;;16.40;78.08
30110;BME280;14965;50.660;13.226;2022-07-23T00:05:33;95068.66;;;16.39;78.54
30110;BME280;14965;50.660;13.226;2022-07-23T00:07:59;95068.94;;;16.41;78.90
30110;BME280;14965;50.660;13.226;2022-07-23T00:10:25;95078.06;;;16.42;78.99
30110;BME280;14965;50.660;13.226;2022-07-23T00:12:51;95064.63;;;16.40;79.14
30110;BME280;14965;50.660;13.226;2022-07-23T00:15:17;95060.28;;;16.39;79.19
30110;BME280;14965;50.660;13.226;2022-07-23T00:17:45;95059.22;;;16.37;79.14
30110;BME280;14965;50.660;13.226;2022-07-23T00:20:11;95053.34;;;16.35;79.31
30110;BME280;14965;50.660;13.226;2022-07-23T00:22:46;95056.31;;;16.31;79.47
30110;BME280;14965;50.660;13.226;2022-07-23T00:25:12;95046.41;;;16.30;79.69
30110;BME280;14965;50.660;13.226;2022-07-23T00:27:38;95048.41;;;16.30;79.85
30110;BME280;14965;50.660;13.226;2022-07-23T00:30:05;95048.09;;;16.28;79.83
30110;BME280;14965;50.660;13.226;2022-07-23T00:32:31;95050.13;;;16.27;80.01
30110;BME280;14965;50.660;13.226;2022-07-23T00:34:58;95053.19;;;16.29;79.95
30110;BME280;14965;50.660;13.226;2022-07-23T00:37:24;95037.56;;;16.32;80.09
30110;BME280;14965;50.660;13.226;2022-07-23T00:39:50;95036.03;;;16.31;80.00
30110;BME280;14965;50.660;13.226;2022-07-23T00:42:16;95037.84;;;16.34;79.96
30110;BME280;14965;50.660;13.226;2022-07-23T00:44:41;95041.06;;;16.41;80.12
30110;BME280;14965;50.660;13.226;2022-07-23T00:47:07;95046.00;;;16.47;80.02
30110;BME280;14965;50.660;13.226;2022-07-23T00:49:33;95041.22;;;16.47;79.85
30110;BME280;14965;50.660;13.226;2022-07-23T00:52:02;95042.25;;;16.50;79.50
30110;BME280;14965;50.660;13.226;2022-07-23T00:54:28;95045.16;;;16.55;79.34
30110;BME280;14965;50.660;13.226;2022-07-23T00:56:54;95038.19;;;16.60;79.07
30110;BME280;14965;50.660;13.226;2022-07-23T00:59:20;95038.19;;;16.60;78.91
30110;BME280;14965;50.660;13.226;2022-07-23T01:01:47;95031.81;;;16.59;78.90
30110;BME280;14965;50.660;13.226;2022-07-23T01:04:12;95045.16;;;16.55;78.88
30110;BME280;14965;50.660;13.226;2022-07-23T01:06:39;95041.31;;;16.53;79.02
30110;BME280;14965;50.660;13.226;2022-07-23T01:09:07;95020.56;;;16.54;78.83
30110;BME280;14965;50.660;13.226;2022-07-23T01:11:33;95022.84;;;16.55;78.79
30110;BME280;14965;50.660;13.226;2022-07-23T01:14:08;95015.47;;;16.52;78.63
30110;BME280;14965;50.660;13.226;2022-07-23T01:16:33;95014.56;;;16.46;78.65
30110;BME280;14965;50.660;13.226;2022-07-23T01:18:59;95015.69;;;16.39;78.40
30110;BME280;14965;50.660;13.226;2022-07-23T01:21:25;95007.56;;;16.27;78.61
30110;BME280;14965;50.660;13.226;2022-07-23T01:23:52;94997.22;;;16.18;79.03
30110;BME280;14965;50.660;13.226;2022-07-23T01:26:18;94997.25;;;16.09;79.38
30110;BME280;14965;50.660;13.226;2022-07-23T01:28:44;94993.56;;;16.03;79.94
30110;BME280;14965;50.660;13.226;2022-07-23T01:31:10;94981.53;;;15.97;80.09
30110;BME280;14965;50.660;13.226;2022-07-23T01:33:36;94980.47;;;15.94;80.92
30110;BME280;14965;50.660;13.226;2022-07-23T01:36:02;94971.03;;;15.91;81.11
30110;BME280;14965;50.660;13.226;2022-07-23T01:38:28;94978.63;;;15.91;81.41
30110;BME280;14965;50.660;13.226;2022-07-23T01:40:55;94978.78;;;15.87;81.58
30110;BME280;14965;50.660;13.226;2022-07-23T01:43:22;94966.41;;;15.88;81.86
30110;BME280;14965;50.660;13.226;2022-07-23T01:45:48;94961.91;;;15.91;81.76
30110;BME280;14965;50.660;13.226;2022-07-23T01:48:14;94960.66;;;15.92;81.45
30110;BME280;14965;50.660;13.226;2022-07-23T01:50:39;94958.19;;;15.94;81.80
30110;BME280;14965;50.660;13.226;2022-07-23T01:53:05;94954.16;;;15.95;81.83
30110;BME280;14965;50.660;13.226;2022-07-23T01:55:31;94960.03;;;15.97;81.94
30110;BME280;14965;50.660;13.226;2022-07-23T01:57:58;94957.38;;;16.03;82.09
30110;BME280;14965;50.660;13.226;2022-07-23T02:00:24;94959.97;;;16.06;82.20
30110;BME280;14965;50.660;13.226;2022-07-23T02:02:50;94950.19;;;16.11;82.18
30110;BME280;14965;50.660;13.226;2022-07-23T02:05:16;94952.06;;;16.14;82.17
30110;BME280;14965;50.660;13.226;2022-07-23T02:07:41;94947.53;;;16.16;82.00
30110;BME280;14965;50.660;13.226;2022-07-23T02:10:08;94953.41;;;16.18;81.88
30110;BME280;14965;50.660;13.226;2022-07-23T02:12:34;94951.41;;;16.19;81.52
30110;BME280;14965;50.660;13.226;2022-07-23T02:15:02;94949.06;;;16.17;81.41
30110;BME280;14965;50.660;13.226;2022-07-23T02:17:28;94946.75;;;16.16;81.18
30110;BME280;14965;50.660;13.226;2022-07-23T02:19:53;94943.97;;;16.16;81.10
30110;BME280;14965;50.660;13.226;2022-07-23T02:22:19;94952.34;;;16.16;81.00
30110;BME280;14965;50.660;13.226;2022-07-23T02:24:45;94958.69;;;16.16;80.95
30110;BME280;14965;50.660;13.226;2022-07-23T02:27:11;94953.09;;;16.16;80.80
30110;BME280;14965;50.660;13.226;2022-07-23T02:29:37;94953.09;;;16.16;80.76
30110;BME280;14965;50.660;13.226;2022-07-23T02:32:04;94954.34;;;16.15;80.62
30110;BME280;14965;50.660;13.226;2022-07-23T02:34:30;94951.84;;;16.17;80.54
30110;BME280;14965;50.660;13.226;2022-07-23T02:36:56;94945.22;;;16.15;80.33
30110;BME280;14965;50.660;13.226;2022-07-23T02:39:22;94948.94;;;16.12;80.38
30110;BME280;14965;50.660;13.226;2022-07-23T02:41:48;94945.75;;;16.04;80.35
30110;BME280;14965;50.660;13.226;2022-07-23T02:44:14;94948.25;;;16.02;80.48
30110;BME280;14965;50.660;13.226;2022-07-23T02:46:41;94938.34;;;16.01;80.46
30110;BME280;14965;50.660;13.226;2022-07-23T02:49:08;94941.13;;;16.01;80.87
30110;BME280;14965;50.660;13.226;2022-07-23T02:51:34;94939.28;;;15.98;80.67
30110;BME280;14965;50.660;13.226;2022-07-23T02:53:59;94937.44;;;15.95;81.03
30110;BME280;14965;50.660;13.226;2022-07-23T02:56:25;94938.09;;;15.90;81.40
30110;BME280;14965;50.660;13.226;2022-07-23T02:58:51;94935.00;;;15.88;81.63
30110;BME280;14965;50.660;13.226;2022-07-23T03:01:17;94919.53;;;15.87;81.78
30110;BME280;14965;50.660;13.226;2022-07-23T03:03:43;94933.16;;;15.85;82.19
30110;BME280;14965;50.660;13.226;2022-07-23T03:06:10;94931.31;;;15.82;82.71
30110;BME280;14965;50.660;13.226;2022-07-23T03:08:36;94924.22;;;15.81;82.92
30110;BME280;14965;50.660;13.226;2022-07-23T03:11:02;94931.16;;;15.85;82.82
30110;BME280;14965;50.660;13.226;2022-07-23T03:13:28;94926.00;;;15.93;83.05
30110;BME280;14965;50.660;13.226;2022-07-23T03:15:53;94926.41;;;16.01;83.17
30110;BME280;14965;50.660;13.226;2022-07-23T03:18:19;94930.09;;;16.07;83.13
30110;BME280;14965;50.660;13.226;2022-07-23T03:20:45;94914.75;;;16.11;82.83
30110;BME280;14965;50.660;13.226;2022-07-23T03:23:13;94909.19;;;16.11;82.59
30110;BME280;14965;50.660;13.226;2022-07-23T03:25:39;94907.66;;;16.10;82.35
30110;BME280;14965;50.660;13.226;2022-07-23T03:28:04;94904.72;;;16.05;82.49
30110;BME280;14965;50.660;13.226;2022-07-23T03:30:30;94911.84;;;16.06;82.54
30110;BME280;14965;50.660;13.226;2022-07-23T03:32:56;94906.09;;;16.09;82.75
30110;BME280;14965;50.660;13.226;2022-07-23T03:35:23;94901.31;;;16.10;83.21
30110;BME280;14965;50.660;13.226;2022-07-23T03:37:49;94897.63;;;16.04;82.81
30110;BME280;14965;50.660;13.226;2022-07-23T03:40:16;94901.34;;;16.01;83.01
30110;BME280;14965;50.660;13.226;2022-07-23T03:42:42;94895.31;;;16.02;82.96
30110;BME280;14965;50.660;13.226;2022-07-23T03:45:09;94896.97;;;16.09;83.29
30110;BME280;14965;50.660;13.226;2022-07-23T03:47:35;94891.03;;;16.16;83.13
30110;BME280;14965;50.660;13.226;2022-07-23T03:50:01;94886.22;;;16.16;83.08
30110;BME280;14965;50.660;13.226;2022-07-23T03:52:27;94873.72;;;16.12;82.74
30110;BME280;14965;50.660;13.226;2022-07-23T03:54:53;94875.16;;;16.07;82.94
30110;BME280;14965;50.660;13.226;2022-07-23T03:57:20;94883.81;;;16.09;82.98
30110;BME280;14965;50.660;13.226;2022-07-23T03:59:46;94880.19;;;16.18;82.73
30110;BME280;14965;50.660;13.226;2022-07-23T04:02:12;94884.28;;;16.32;82.79
30110;BME280;14965;50.660;13.226;2022-07-23T04:04:38;94884.13;;;16.50;82.43
30110;BME280;14965;50.660;13.226;2022-07-23T04:07:04;94891.09;;;16.69;81.51
30110;BME280;14965;50.660;13.226;2022-07-23T04:09:29;94882.75;;;16.84;80.60
30110;BME280;14965;50.660;13.226;2022-07-23T04:11:55;94874.91;;;16.98;79.80
30110;BME280;14965;50.660;13.226;2022-07-23T04:14:22;94869.22;;;17.07;79.14
30110;BME280;14965;50.660;13.226;2022-07-23T04:16:48;94867.41;;;17.18;78.34
30110;BME280;14965;50.660;13.226;2022-07-23T04:19:14;94875.75;;;17.33;77.77
30110;BME280;14965;50.660;13.226;2022-07-23T04:21:40;94872.66;;;17.46;76.86
30110;BME280;14965;50.660;13.226;2022-07-23T04:24:06;94884.97;;;17.54;76.57
30110;BME280;14965;50.660;13.226;2022-07-23T04:26:32;94892.88;;;17.56;77.19
30110;BME280;14965;50.660;13.226;2022-07-23T04:28:58;94905.09;;;17.58;77.12
30110;BME280;14965;50.660;13.226;2022-07-23T04:31:25;94909.41;;;17.59;77.24
30110;BME280;14965;50.660;13.226;2022-07-23T04:33:51;94909.41;;;17.59;77.47
30110;BME280;14965;50.660;13.226;2022-07-23T04:36:17;94908.44;;;17.62;77.38
30110;BME280;14965;50.660;13.226;2022-07-23T04:38:42;94904.19;;;17.67;76.71
30110;BME280;14965;50.660;13.226;2022-07-23T04:41:08;94903.03;;;17.74;76.22
30110;BME280;14965;50.660;13.226;2022-07-23T04:43:34;94892.56;;;17.68;75.95
30110;BME280;14965;50.660;13.226;2022-07-23T04:46:00;94892.94;;;17.61;76.53
30110;BME280;14965;50.660;13.226;2022-07-23T04:48:27;94900.56;;;17.61;76.45
30110;BME280;14965;50.660;13.226;2022-07-23T04:50:53;94902.09;;;17.62;76.54
30110;BME280;14965;50.660;13.226;2022-07-23T04:53:19;94898.16;;;17.68;77.32
30110;BME280;14965;50.660;13.226;2022-07-23T04:55:45;94892.84;;;17.71;78.54
30110;BME280;14965;50.660;13.226;2022-07-23T04:58:11;94895.06;;;17.66;77.86
30110;BME280;14965;50.660;13.226;2022-07-23T05:00:37;94884.47;;;17.71;77.41
30110;BME280;14965;50.660;13.226;2022-07-23T05:03:03;94885.34;;;17.77;77.01
30110;BME280;14965;50.660;13.226;2022-07-23T05:05:31;94883.69;;;17.85;76.33
30110;BME280;14965;50.660;13.226;2022-07-23T05:07:57;94889.16;;;17.94;76.59
30110;BME280;14965;50.660;13.226;2022-07-23T05:10:23;94899.91;;;18.01;77.13
30110;BME280;14965;50.660;13.226;2022-07-23T05:12:48;94910.31;;;18.01;77.59
30110;BME280;14965;50.660;13.226;2022-07-23T05:15:14;94910.41;;;18.06;77.81
30110;BME280;14965;50.660;13.226;2022-07-23T05:17:40;94918.78;;;18.06;77.63
30110;BME280;14965;50.660;13.226;2022-07-23T05:20:07;94925.34;;;18.03;77.05
30110;BME280;14965;50.660;13.226;2022-07-23T05:22:34;94928.53;;;17.96;76.59
30110;BME280;14965;50.660;13.226;2022-07-23T05:25:00;94947.84;;;17.94;77.12
30110;BME280;14965;50.660;13.226;2022-07-23T05:27:26;94946.28;;;17.93;76.97
30110;BME280;14965;50.660;13.226;2022-07-23T05:29:51;94960.25;;;17.93;76.86
30110;BME280;14965;50.660;13.226;2022-07-23T05:32:17;94975.47;;;17.92;76.94
30110;BME280;14965;50.660;13.226;2022-07-23T05:34:43;94981.25;;;17.88;76.57
30110;BME280;14965;50.660;13.226;2022-07-23T05:37:09;94972.41;;;17.90;76.42
30110;BME280;14965;50.660;13.226;2022-07-23T05:39:36;94995.03;;;17.92;76.40
30110;BME280;14965;50.660;13.226;2022-07-23T05:42:02;94999.28;;;17.87;76.61
30110;BME280;14965;50.660;13.226;2022-07-23T05:44:28;95001.88;;;17.76;77.72
30110;BME280;14965;50.660;13.226;2022-07-23T05:46:54;95018.91;;;17.63;78.88
30110;BME280;14965;50.660;13.226;2022-07-23T05:49:20;95027.50;;;17.60;79.39
30110;BME280;14965;50.660;13.226;2022-07-23T05:51:46;95023.06;;;17.53;80.00
30110;BME280;14965;50.660;13.226;2022-07-23T05:54:11;95020.44;;;17.50;80.24
30110;BME280;14965;50.660;13.226;2022-07-23T05:56:39;95020.63;;;17.46;80.88
30110;BME280;14965;50.660;13.226;2022-07-23T05:59:04;95032.47;;;17.41;81.46
30110;BME280;14965;50.660;13.226;2022-07-23T06:01:30;95025.91;;;17.29;81.85
30110;BME280;14965;50.660;13.226;2022-07-23T06:03:56;95020.50;;;17.26;81.81
30110;BME280;14965;50.660;13.226;2022-07-23T06:06:22;95014.16;;;17.25;82.15
30110;BME280;14965;50.660;13.226;2022-07-23T06:08:48;95025.91;;;17.29;82.45
30110;BME280;14965;50.660;13.226;2022-07-23T06:11:14;95027.44;;;17.30;82.74
30110;BME280;14965;50.660;13.226;2022-07-23T06:13:41;95025.31;;;17.25;82.78
30110;BME280;14965;50.660;13.226;2022-07-23T06:16:07;95028.88;;;17.26;82.78
30110;BME280;14965;50.660;13.226;2022-07-23T06:18:33;95026.97;;;17.32;83.02
30110;BME280;14965;50.660;13.226;2022-07-23T06:20:59;95033.91;;;17.36;82.54
30110;BME280;14965;50.660;13.226;2022-07-23T06:23:25;95040.44;;;17.33;82.80
30110;BME280;14965;50.660;13.226;2022-07-23T06:25:50;95050.06;;;17.32;83.17
30110;BME280;14965;50.660;13.226;2022-07-23T06:28:16;95049.41;;;17.23;83.20
30110;BME280;14965;50.660;13.226;2022-07-23T06:30:43;95049.59;;;16.95;83.80
30110;BME280;14965;50.660;13.226;2022-07-23T06:33:09;95062.59;;;16.74;85.35
30110;BME280;14965;50.660;13.226;2022-07-23T06:35:35;95063.47;;;16.56;85.97
30110;BME280;14965;50.660;13.226;2022-07-23T06:38:01;95058.38;;;16.46;86.43
30110;BME280;14965;50.660;13.226;2022-07-23T06:40:27;95057.34;;;16.43;87.58
30110;BME280;14965;50.660;13.226;2022-07-23T06:42:53;95039.88;;;16.33;87.99
30110;BME280;14965;50.660;13.226;2022-07-23T06:45:19;95047.28;;;16.36;88.01
30110;BME280;14965;50.660;13.226;2022-07-23T06:47:46;95041.22;;;16.38;87.87
30110;BME280;14965;50.660;13.226;2022-07-23T06:50:12;95038.16;;;16.36;88.04
30110;BME280;14965;50.660;13.226;2022-07-23T06:52:38;95036.53;;;16.20;88.62
30110;BME280;14965;50.660;13.226;2022-07-23T06:55:05;95033.47;;;16.09;89.33
30110;BME280;14965;50.660;13.226;2022-07-23T06:57:31;95042.94;;;16.02;90.22
30110;BME280;14965;50.660;13.226;2022-07-23T06:59:57;95040.44;;;16.04;90.20
30110;BME280;14965;50.660;13.226;2022-07-23T07:02:22;95034.44;;;16.06;90.25
30110;BME280;14965;50.660;13.226;2022-07-23T07:04:50;95036.75;;;16.07;90.54
30110;BME280;14965;50.660;13.226;2022-07-23T07:07:16;95038.72;;;16.16;90.48
30110;BME280;14965;50.660;13.226;2022-07-23T07:09:42;95036.03;;;16.31;90.35
30110;BME280;14965;50.660;13.226;2022-07-23T07:12:08;95042.16;;;16.44;89.36
30110;BME280;14965;50.660;13.226;2022-07-23T07:14:34;95048.00;;;16.46;89.29
30110;BME280;14965;50.660;13.226;2022-07-23T07:16:59;95045.47;;;16.57;89.15
30110;BME280;14965;50.660;13.226;2022-07-23T07:19:25;95050.06;;;16.69;88.78
30110;BME280;14965;50.660;13.226;2022-07-23T07:21:53;95062.47;;;16.68;88.16
30110;BME280;14965;50.660;13.226;2022-07-23T07:24:18;95058.09;;;16.67;87.86
30110;BME280;14965;50.660;13.226;2022-07-23T07:26:44;95052.06;;;16.69;88.19
30110;BME280;14965;50.660;13.226;2022-07-23T07:29:10;95057.41;;;16.58;88.17
30110;BME280;14965;50.660;13.226;2022-07-23T07:31:36;95061.31;;;16.51;88.31
30110;BME280;14965;50.660;13.226;2022-07-23T07:34:02;95073.19;;;16.28;89.21
30110;BME280;14965;50.660;13.226;2022-07-23T07:36:28;95071.06;;;16.23;89.96
30110;BME280;14965;50.660;13.226;2022-07-23T07:38:55;95074.78;;;16.19;90.11
30110;BME280;14965;50.660;13.226;2022-07-23T07:41:21;95078.50;;;16.16;90.66
30110;BME280;14965;50.660;13.226;2022-07-23T07:43:46;95057.78;;;16.08;91.06
30110;BME280;14965;50.660;13.226;2022-07-23T07:46:12;95061.13;;;16.22;90.75
30110;BME280;14965;50.660;13.226;2022-07-23T07:48:38;95049.91;;;16.40;89.79
30110;BME280;14965;50.660;13.226;2022-07-23T07:51:04;95043.91;;;16.89;88.90
30110;BME280;14965;50.660;13.226;2022-07-23T07:53:30;95057.34;;;17.68;84.17
30110;BME280;14965;50.660;13.226;2022-07-23T07:55:58;95030.34;;;18.25;82.01
30110;BME280;14965;50.660;13.226;2022-07-23T07:58:23;95038.44;;;18.93;78.06
30110;BME280;14965;50.660;13.226;2022-07-23T08:00:49;95034.81;;;19.28;75.90
30110;BME280;14965;50.660;13.226;2022-07-23T08:03:15;95032.97;;;19.71;73.98
30110;BME280;14965;50.660;13.226;2022-07-23T08:05:41;95019.41;;;20.22;71.50
30110;BME280;14965;50.660;13.226;2022-07-23T08:08:07;95011.22;;;21.04;68.31
30110;BME280;14965;50.660;13.226;2022-07-23T08:10:32;95025.47;;;21.49;64.95
30110;BME280;14965;50.660;13.226;2022-07-23T08:13:00;95027.78;;;21.67;65.52
30110;BME280;14965;50.660;13.226;2022-07-23T08:15:28;95030.31;;;21.54;64.89
30110;BME280;14965;50.660;13.226;2022-07-23T08:17:55;95034.88;;;21.40;65.37
30110;BME280;14965;50.660;13.226;2022-07-23T08:20:22;95041.53;;;21.48;65.50
30110;BME280;14965;50.660;13.226;2022-07-23T08:22:52;95050.03;;;21.76;65.04
30110;BME280;14965;50.660;13.226;2022-07-23T08:25:22;95054.66;;;21.74;64.43
30110;BME280;14965;50.660;13.226;2022-07-23T08:27:49;95043.38;;;21.68;65.03
30110;BME280;14965;50.660;13.226;2022-07-23T08:30:16;95065.91;;;21.74;66.00
30110;BME280;14965;50.660;13.226;2022-07-23T08:32:51;95050.53;;;21.69;65.36
30110;BME280;14965;50.660;13.226;2022-07-23T08:35:17;95050.00;;;21.54;65.83
30110;BME280;14965;50.660;13.226;2022-07-23T08:37:43;95048.81;;;21.23;66.72
30110;BME280;14965;50.660;13.226;2022-07-23T08:40:11;95031.81;;;20.89;67.41
30110;BME280;14965;50.660;13.226;2022-07-23T08:42:37;95039.22;;;20.87;68.65
30110;BME280;14965;50.660;13.226;2022-07-23T08:45:07;95030.06;;;20.92;68.87
30110;BME280;14965;50.660;13.226;2022-07-23T08:47:37;95020.47;;;21.16;68.17
30110;BME280;14965;50.660;13.226;2022-07-23T08:50:04;95037.00;;;21.73;66.21
30110;BME280;14965;50.660;13.226;2022-07-23T08:52:30;95017.56;;;22.65;62.43
30110;BME280;14965;50.660;13.226;2022-07-23T08:54:57;95023.06;;;23.74;60.38
30110;BME280;14965;50.660;13.226;2022-07-23T08:57:23;95015.97;;;24.39;56.83
30110;BME280;14965;50.660;13.226;2022-07-23T08:59:49;95010.69;;;24.54;56.01
30110;BME280;14965;50.660;13.226;2022-07-23T09:02:15;95022.84;;;24.07;56.97
30110;BME280;14965;50.660;13.226;2022-07-23T09:04:42;95020.69;;;23.89;58.22
30110;BME280;14965;50.660;13.226;2022-07-23T09:07:08;95028.53;;;24.02;58.41
30110;BME280;14965;50.660;13.226;2022-07-23T09:09:34;95026.97;;;24.06;57.60
30110;BME280;14965;50.660;13.226;2022-07-23T09:12:04;95025.13;;;23.73;59.35
30110;BME280;14965;50.660;13.226;2022-07-23T09:14:39;95038.91;;;23.30;60.68
30110;BME280;14965;50.660;13.226;2022-07-23T09:17:10;95042.56;;;23.14;61.23
30110;BME280;14965;50.660;13.226;2022-07-23T09:19:36;95041.59;;;22.88;62.17
30110;BME280;14965;50.660;13.226;2022-07-23T09:22:20;95044.69;;;22.68;63.28
30110;BME280;14965;50.660;13.226;2022-07-23T09:25:09;95058.81;;;22.51;63.78
30110;BME280;14965;50.660;13.226;2022-07-23T09:27:54;95074.16;;;22.45;64.04
30110;BME280;14965;50.660;13.226;2022-07-23T09:30:22;95072.63;;;22.55;63.86
30110;BME280;14965;50.660;13.226;2022-07-23T09:33:05;95074.91;;;22.56;64.49
30110;BME280;14965;50.660;13.226;2022-07-23T09:35:49;95070.56;;;22.61;63.45
30110;BME280;14965;50.660;13.226;2022-07-23T09:38:17;95054.63;;;22.86;63.36
30110;BME280;14965;50.660;13.226;2022-07-23T09:40:45;95054.38;;;23.06;61.22
30110;BME280;14965;50.660;13.226;2022-07-23T09:43:12;95055.13;;;23.13;60.39
30110;BME280;14965;50.660;13.226;2022-07-23T09:45:38;95058.13;;;23.31;61.69
30110;BME280;14965;50.660;13.226;2022-07-23T09:48:12;95054.91;;;23.63;60.77
30110;BME280;14965;50.660;13.226;2022-07-23T09:50:38;95069.13;;;23.93;58.78
30110;BME280;14965;50.660;13.226;2022-07-23T09:53:04;95068.00;;;24.07;57.84
30110;BME280;14965;50.660;13.226;2022-07-23T09:55:34;95075.34;;;24.22;58.92
30110;BME280;14965;50.660;13.226;2022-07-23T09:58:02;95076.66;;;24.15;57.89
30110;BME280;14965;50.660;13.226;2022-07-23T10:00:29;95074.72;;;23.99;57.79
30110;BME280;14965;50.660;13.226;2022-07-23T10:02:57;95076.06;;;23.92;58.22
30110;BME280;14965;50.660;13.226;2022-07-23T10:05:25;95076.66;;;23.79;58.51
30110;BME280;14965;50.660;13.226;2022-07-23T10:07:51;95082.91;;;23.44;58.76
30110;BME280;14965;50.660;13.226;2022-07-23T10:10:20;95099.94;;;23.16;59.70
30110;BME280;14965;50.660;13.226;2022-07-23T10:12:53;95098.41;;;23.21;60.92
30110;BME280;14965;50.660;13.226;2022-07-23T10:15:23;95097.59;;;23.26;59.53
30110;BME280;14965;50.660;13.226;2022-07-23T10:17:55;95089.13;;;23.37;59.07
30110;BME280;14965;50.660;13.226;2022-07-23T10:20:22;95100.63;;;23.39;59.55
30110;BME280;14965;50.660;13.226;2022-07-23T10:23:34;95098.88;;;23.30;60.32
30110;BME280;14965;50.660;13.226;2022-07-23T10:26:29;95092.44;;;23.41;59.82
30110;BME280;14965;50.660;13.226;2022-07-23T10:29:36;95102.31;;;23.65;59.27
30110;BME280;14965;50.660;13.226;2022-07-23T10:35:57;95101.06;;;24.13;57.85
30110;BME280;14965;50.660;13.226;2022-07-23T10:38:38;95100.03;;;24.51;56.26
30110;BME280;14965;50.660;13.226;2022-07-23T10:41:34;95099.56;;;24.77;55.50
30110;BME280;14965;50.660;13.226;2022-07-23T10:44:22;95108.78;;;24.78;54.48
30110;BME280;14965;50.660;13.226;2022-07-23T10:47:40;95097.75;;;25.04;55.13
30110;BME280;14965;50.660;13.226;2022-07-23T10:50:41;95104.03;;;25.22;52.42
30110;BME280;14965;50.660;13.226;2022-07-23T10:53:18;95100.69;;;24.93;53.71
30110;BME280;14965;50.660;13.226;2022-07-23T11:00:28;95103.94;;;24.43;55.88
30110;BME280;14965;50.660;13.226;2022-07-23T11:04:11;95104.75;;;24.32;57.10
30110;BME280;14965;50.660;13.226;2022-07-23T11:07:29;95093.47;;;23.96;57.75
30110;BME280;14965;50.660;13.226;2022-07-23T11:10:06;95093.47;;;23.96;58.15
30110;BME280;14965;50.660;13.226;2022-07-23T11:16:47;95096.78;;;24.00;57.97
30110;BME280;14965;50.660;13.226;2022-07-23T11:27:53;95098.22;;;23.66;57.90
30110;BME280;14965;50.660;13.226;2022-07-23T11:40:23;95104.91;;;23.63;57.96
30110;BME280;14965;50.660;13.226;2022-07-23T11:49:43;95098.59;;;23.34;59.01
30110;BME280;14965;50.660;13.226;2022-07-23T11:57:23;95099.78;;;23.55;59.20
30110;BME280;14965;50.660;13.226;2022-07-23T12:00:44;95080.53;;;23.71;58.08
30110;BME280;14965;50.660;13.226;2022-07-23T12:42:12;95108.28;;;23.50;55.96
30110;BME280;14965;50.660;13.226;2022-07-23T12:45:27;95113.53;;;23.01;58.38
30110;BME280;14965;50.660;13.226;2022-07-23T12:48:49;95114.06;;;22.37;60.90
30110;BME280;14965;50.660;13.226;2022-07-23T12:52:28;95109.22;;;22.49;61.27
30110;BME280;14965;50.660;13.226;2022-07-23T12:55:27;95110.00;;;22.50;61.77
30110;BME280;14965;50.660;13.226;2022-07-23T13:20:02;95108.66;;;23.13;60.16
30110;BME280;14965;50.660;13.226;2022-07-23T13:22:30;95112.75;;;23.17;60.39
30110;BME280;14965;50.660;13.226;2022-07-23T13:24:55;95105.75;;;23.35;59.44
30110;BME280;14965;50.660;13.226;2022-07-23T13:27:21;95108.09;;;23.20;58.83
30110;BME280;14965;50.660;13.226;2022-07-23T13:29:47;95110.75;;;22.95;59.22
30110;BME280;14965;50.660;13.226;2022-07-23T13:32:13;95120.72;;;22.51;62.65
30110;BME280;14965;50.660;13.226;2022-07-23T13:34:39;95121.50;;;22.46;63.28
30110;BME280;14965;50.660;13.226;2022-07-23T13:37:06;95115.84;;;22.24;62.87
30110;BME280;14965;50.660;13.226;2022-07-23T13:39:32;95121.97;;;22.17;63.44
30110;BME280;14965;50.660;13.226;2022-07-23T13:41:58;95122.16;;;21.91;64.43
30110;BME280;14965;50.660;13.226;2022-07-23T13:44:24;95120.03;;;21.69;64.10
30110;BME280;14965;50.660;13.226;2022-07-23T13:46:50;95120.50;;;21.50;64.67
30110;BME280;14965;50.660;13.226;2022-07-23T13:49:16;95124.78;;;21.40;65.87
30110;BME280;14965;50.660;13.226;2022-07-23T13:51:41;95127.78;;;21.31;65.99
30110;BME280;14965;50.660;13.226;2022-07-23T13:54:08;95129.28;;;21.26;66.01
30110;BME280;14965;50.660;13.226;2022-07-23T13:56:35;95126.75;;;21.28;66.41
30110;BME280;14965;50.660;13.226;2022-07-23T13:59:00;95125.06;;;21.42;66.67
30110;BME280;14965;50.660;13.226;2022-07-23T14:01:27;95125.34;;;21.50;65.54
30110;BME280;14965;50.660;13.226;2022-07-23T14:03:52;95125.41;;;21.67;65.82
30110;BME280;14965;50.660;13.226;2022-07-23T14:06:18;95122.13;;;21.79;65.30
30110;BME280;14965;50.660;13.226;2022-07-23T14:08:44;95123.41;;;21.78;65.23
30110;BME280;14965;50.660;13.226;2022-07-23T14:11:12;95127.28;;;21.98;66.31
30110;BME280;14965;50.660;13.226;2022-07-23T14:13:38;95133.00;;;22.20;66.32
30110;BME280;14965;50.660;13.226;2022-07-23T14:16:04;95138.63;;;22.37;63.88
30110;BME280;14965;50.660;13.226;2022-07-23T14:18:30;95131.22;;;22.51;62.68
30110;BME280;14965;50.660;13.226;2022-07-23T14:20:56;95128.41;;;22.56;63.11
30110;BME280;14965;50.660;13.226;2022-07-23T14:23:22;95129.66;;;22.61;61.93
30110;BME280;14965;50.660;13.226;2022-07-23T14:25:48;95126.88;;;22.55;63.67
30110;BME280;14965;50.660;13.226;2022-07-23T14:28:15;95135.31;;;22.38;63.91
30110;BME280;14965;50.660;13.226;2022-07-23T14:30:41;95135.03;;;22.25;65.13
30110;BME280;14965;50.660;13.226;2022-07-23T14:33:07;95150.13;;;22.22;64.70
30110;BME280;14965;50.660;13.226;2022-07-23T14:35:32;95145.16;;;21.89;63.60
30110;BME280;14965;50.660;13.226;2022-07-23T14:37:58;95150.19;;;21.62;66.04
30110;BME280;14965;50.660;13.226;2022-07-23T14:40:24;95149.63;;;21.53;66.86
30110;BME280;14965;50.660;13.226;2022-07-23T14:42:50;95137.94;;;21.71;65.79